sensor_id;sensor_type;location;lat;lon;timestamp;temperature;humidity
8408;DHT22;4241;48.452;9.216;2022-11-09T00:01:21;11.70;99.90
8408;DHT22;4241;48.452;9.216;2022-11-09T00:03:53;11.70;99.90
8408;DHT22;4241;48.452;9.216;2022-11-09T00:06:20;11.80;99.90
8408;DHT22;4241;48.452;9.216;2022-11-09T00:08:49;11.60;99.90
8408;DHT22;4241;48.452;9.216;2022-11-09T00:11:15;11.70;99.90
8408;DHT22;4241;48.452;9.216;2022-11-09T00:13:43;11.70;99.90
8408;DHT22;4241;48.452;9.216;2022-11-09T00:16:12;11.70;99.90
8408;DHT22;4241;48.452;9.216;2022-11-09T00:18:39;11.70;99.90
8408;DHT22;4241;48.452;9.216;2022-11-09T00:21:13;11.70;99.90
8408;DHT22;4241;48.452;9.216;2022-11-09T00:23:40;11.80;99.90
8408;DHT22;4241;48.452;9.216;2022-11-09T00:26:10;11.70;99.90
8408;DHT22;4241;48.452;9.216;2022-11-09T00:28:37;11.70;99.90
8408;DHT22;4241;48.452;9.216;2022-11-09T00:31:06;11.70;99.90
8408;DHT22;4241;48.452;9.216;2022-11-09T00:33:33;11.60;99.90
8408;DHT22;4241;48.452;9.216;2022-11-09T00:36:03;11.60;99.90
8408;DHT22;4241;48.452;9.216;2022-11-09T00:38:32;11.60;99.90
8408;DHT22;4241;48.452;9.216;2022-11-09T00:41:00;11.50;99.90
8408;DHT22;4241;48.452;9.216;2022-11-09T00:43:28;11.50;99.90
8408;DHT22;4241;48.452;9.216;2022-11-09T00:45:55;11.60;99.90
8408;DHT22;4241;48.452;9.216;2022-11-09T00:48:23;11.60;99.90
8408;DHT22;4241;48.452;9.216;2022-11-09T00:50:50;11.60;99.90
8408;DHT22;4241;48.452;9.216;2022-11-09T00:53:17;11.60;99.90
8408;DHT22;4241;48.452;9.216;2022-11-09T00:55:53;11.60;99.90
8408;DHT22;4241;48.452;9.216;2022-11-09T00:58:20;11.60;99.90
8408;DHT22;4241;48.452;9.216;2022-11-09T01:00:48;11.70;99.90
8408;DHT22;4241;48.452;9.216;2022-11-09T01:03:15;11.70;99.90
8408;DHT22;4241;48.452;9.216;2022-11-09T01:05:42;11.80;99.90
8408;DHT22;4241;48.452;9.216;2022-11-09T01:08:09;11.70;99.90
8408;DHT22;4241;48.452;9.216;2022-11-09T01:10:39;11.70;99.90
8408;DHT22;4241;48.452;9.216;2022-11-09T01:13:06;11.70;99.90
8408;DHT22;4241;48.452;9.216;2022-11-09T01:15:33;11.70;99.90
8408;DHT22;4241;48.452;9.216;2022-11-09T01:18:01;11.80;99.90
8408;DHT22;4241;48.452;9.216;2022-11-09T01:20:27;11.80;99.90
8408;DHT22;4241;48.452;9.216;2022-11-09T01:22:54;11.80;99.90
8408;DHT22;4241;48.452;9.216;2022-11-09T01:25:21;11.80;99.90
8408;DHT22;4241;48.452;9.216;2022-11-09T01:27:48;11.90;99.90
8408;DHT22;4241;48.452;9.216;2022-11-09T01:30:15;11.80;99.90
8408;DHT22;4241;48.452;9.216;2022-11-09T01:32:42;11.90;99.90
8408;DHT22;4241;48.452;9.216;2022-11-09T01:35:10;11.80;99.90
8408;DHT22;4241;48.452;9.216;2022-11-09T01:37:36;11.80;99.90
8408;DHT22;4241;48.452;9.216;2022-11-09T01:40:04;11.80;99.90
8408;DHT22;4241;48.452;9.216;2022-11-09T01:42:35;11.80;99.90
8408;DHT22;4241;48.452;9.216;2022-11-09T01:45:24;11.80;99.90
8408;DHT22;4241;48.452;9.216;2022-11-09T01:47:55;11.80;99.90
8408;DHT22;4241;48.452;9.216;2022-11-09T01:50:30;11.80;99.90
8408;DHT22;4241;48.452;9.216;2022-11-09T01:53:01;11.80;99.90
8408;DHT22;4241;48.452;9.216;2022-11-09T01:55:29;11.70;99.90
8408;DHT22;4241;48.452;9.216;2022-11-09T01:57:59;11.80;99.90
8408;DHT22;4241;48.452;9.216;2022-11-09T02:00:28;11.80;99.90
8408;DHT22;4241;48.452;9.216;2022-11-09T02:02:57;11.90;99.90
8408;DHT22;4241;48.452;9.216;2022-11-09T02:05:29;11.90;99.90
8408;DHT22;4241;48.452;9.216;2022-11-09T02:07:58;11.90;99.90
8408;DHT22;4241;48.452;9.216;2022-11-09T02:10:30;12.00;99.90
8408;DHT22;4241;48.452;9.216;2022-11-09T02:12:58;12.00;99.90
8408;DHT22;4241;48.452;9.216;2022-11-09T02:15:26;12.00;99.90
8408;DHT22;4241;48.452;9.216;2022-11-09T02:17:54;12.00;99.90
8408;DHT22;4241;48.452;9.216;2022-11-09T02:20:24;12.20;99.90
8408;DHT22;4241;48.452;9.216;2022-11-09T02:22:51;12.30;99.90
8408;DHT22;4241;48.452;9.216;2022-11-09T02:25:17;12.30;99.90
8408;DHT22;4241;48.452;9.216;2022-11-09T02:27:45;12.70;99.90
8408;DHT22;4241;48.452;9.216;2022-11-09T02:30:12;12.70;99.90
8408;DHT22;4241;48.452;9.216;2022-11-09T02:32:40;12.90;99.90
8408;DHT22;4241;48.452;9.216;2022-11-09T02:35:08;13.00;99.90
8408;DHT22;4241;48.452;9.216;2022-11-09T02:37:38;13.00;99.90
8408;DHT22;4241;48.452;9.216;2022-11-09T02:40:09;13.20;99.90
8408;DHT22;4241;48.452;9.216;2022-11-09T02:42:39;13.30;99.90
8408;DHT22;4241;48.452;9.216;2022-11-09T02:45:06;13.30;99.90
8408;DHT22;4241;48.452;9.216;2022-11-09T02:47:33;13.30;99.90
8408;DHT22;4241;48.452;9.216;2022-11-09T02:50:00;13.30;99.90
8408;DHT22;4241;48.452;9.216;2022-11-09T02:52:27;13.30;99.90
8408;DHT22;4241;48.452;9.216;2022-11-09T02:54:55;13.30;99.90
8408;DHT22;4241;48.452;9.216;2022-11-09T02:57:22;13.30;99.90
8408;DHT22;4241;48.452;9.216;2022-11-09T03:02:16;13.00;99.90
8408;DHT22;4241;48.452;9.216;2022-11-09T03:04:43;13.10;99.90
8408;DHT22;4241;48.452;9.216;2022-11-09T03:07:09;8.10;99.90
8408;DHT22;4241;48.452;9.216;2022-11-09T03:09:36;12.80;99.90
8408;DHT22;4241;48.452;9.216;2022-11-09T03:12:05;12.70;99.90
8408;DHT22;4241;48.452;9.216;2022-11-09T03:14:45;12.70;99.90
8408;DHT22;4241;48.452;9.216;2022-11-09T03:17:12;12.60;99.90
8408;DHT22;4241;48.452;9.216;2022-11-09T03:19:39;12.50;99.90
8408;DHT22;4241;48.452;9.216;2022-11-09T03:22:06;12.40;99.90
8408;DHT22;4241;48.452;9.216;2022-11-09T03:24:33;12.40;99.90
8408;DHT22;4241;48.452;9.216;2022-11-09T03:26:59;12.30;99.90
8408;DHT22;4241;48.452;9.216;2022-11-09T03:29:28;12.20;99.90
8408;DHT22;4241;48.452;9.216;2022-11-09T03:31:54;12.10;99.90
8408;DHT22;4241;48.452;9.216;2022-11-09T03:34:21;12.10;99.90
8408;DHT22;4241;48.452;9.216;2022-11-09T03:39:15;11.90;99.90
8408;DHT22;4241;48.452;9.216;2022-11-09T03:41:42;11.90;99.90
8408;DHT22;4241;48.452;9.216;2022-11-09T03:44:09;11.90;99.90
8408;DHT22;4241;48.452;9.216;2022-11-09T03:46:37;11.90;99.90
8408;DHT22;4241;48.452;9.216;2022-11-09T03:49:04;11.80;99.90
8408;DHT22;4241;48.452;9.216;2022-11-09T03:51:31;11.80;99.90
8408;DHT22;4241;48.452;9.216;2022-11-09T03:53:57;11.80;99.90
8408;DHT22;4241;48.452;9.216;2022-11-09T03:56:24;11.90;99.90
8408;DHT22;4241;48.452;9.216;2022-11-09T03:58:51;11.90;99.90
8408;DHT22;4241;48.452;9.216;2022-11-09T04:03:46;11.80;99.90
8408;DHT22;4241;48.452;9.216;2022-11-09T04:06:13;11.80;99.90
8408;DHT22;4241;48.452;9.216;2022-11-09T04:08:40;11.80;99.90
8408;DHT22;4241;48.452;9.216;2022-11-09T04:11:06;11.70;99.90
8408;DHT22;4241;48.452;9.216;2022-11-09T04:13:33;11.60;99.90
8408;DHT22;4241;48.452;9.216;2022-11-09T04:16:00;11.60;99.90
8408;DHT22;4241;48.452;9.216;2022-11-09T04:18:27;11.60;99.90
8408;DHT22;4241;48.452;9.216;2022-11-09T04:20:56;11.60;99.90
8408;DHT22;4241;48.452;9.216;2022-11-09T04:23:23;11.60;99.90
8408;DHT22;4241;48.452;9.216;2022-11-09T04:25:50;11.60;99.90
8408;DHT22;4241;48.452;9.216;2022-11-09T04:28:17;11.60;99.90
8408;DHT22;4241;48.452;9.216;2022-11-09T04:30:44;11.60;99.90
8408;DHT22;4241;48.452;9.216;2022-11-09T04:33:11;11.60;99.90
8408;DHT22;4241;48.452;9.216;2022-11-09T04:35:38;11.50;99.90
8408;DHT22;4241;48.452;9.216;2022-11-09T04:38:09;11.50;99.90
8408;DHT22;4241;48.452;9.216;2022-11-09T04:40:37;11.50;99.90
8408;DHT22;4241;48.452;9.216;2022-11-09T04:43:06;11.50;99.90
8408;DHT22;4241;48.452;9.216;2022-11-09T04:45:34;11.50;99.90
8408;DHT22;4241;48.452;9.216;2022-11-09T04:48:02;11.40;99.90
8408;DHT22;4241;48.452;9.216;2022-11-09T04:50:30;11.40;99.90
8408;DHT22;4241;48.452;9.216;2022-11-09T04:53:08;11.40;99.90
8408;DHT22;4241;48.452;9.216;2022-11-09T04:55:36;11.30;99.90
8408;DHT22;4241;48.452;9.216;2022-11-09T04:58:03;11.30;99.90
8408;DHT22;4241;48.452;9.216;2022-11-09T05:00:30;11.30;99.90
8408;DHT22;4241;48.452;9.216;2022-11-09T05:02:59;11.30;99.90
8408;DHT22;4241;48.452;9.216;2022-11-09T05:05:26;11.40;99.90
8408;DHT22;4241;48.452;9.216;2022-11-09T05:07:53;11.50;99.90
8408;DHT22;4241;48.452;9.216;2022-11-09T05:10:21;11.30;99.90
8408;DHT22;4241;48.452;9.216;2022-11-09T05:12:48;11.30;99.90
8408;DHT22;4241;48.452;9.216;2022-11-09T05:15:15;11.30;99.90
8408;DHT22;4241;48.452;9.216;2022-11-09T05:17:42;11.30;99.90
8408;DHT22;4241;48.452;9.216;2022-11-09T05:20:09;11.20;99.90
8408;DHT22;4241;48.452;9.216;2022-11-09T05:22:39;11.20;99.90
8408;DHT22;4241;48.452;9.216;2022-11-09T05:25:24;11.10;99.90
8408;DHT22;4241;48.452;9.216;2022-11-09T05:27:52;11.20;99.90
8408;DHT22;4241;48.452;9.216;2022-11-09T05:30:19;11.30;99.90
8408;DHT22;4241;48.452;9.216;2022-11-09T05:32:45;11.40;99.90
8408;DHT22;4241;48.452;9.216;2022-11-09T05:35:12;11.50;99.90
8408;DHT22;4241;48.452;9.216;2022-11-09T05:37:39;11.60;99.90
8408;DHT22;4241;48.452;9.216;2022-11-09T05:40:08;11.60;99.90
8408;DHT22;4241;48.452;9.216;2022-11-09T05:42:38;11.50;99.90
8408;DHT22;4241;48.452;9.216;2022-11-09T05:45:06;11.70;99.90
8408;DHT22;4241;48.452;9.216;2022-11-09T05:47:36;11.70;99.90
8408;DHT22;4241;48.452;9.216;2022-11-09T05:50:04;11.80;99.90
8408;DHT22;4241;48.452;9.216;2022-11-09T05:52:31;11.90;99.90
8408;DHT22;4241;48.452;9.216;2022-11-09T05:54:58;12.10;99.90
8408;DHT22;4241;48.452;9.216;2022-11-09T05:57:26;12.00;99.90
8408;DHT22;4241;48.452;9.216;2022-11-09T05:59:54;12.00;99.90
8408;DHT22;4241;48.452;9.216;2022-11-09T06:02:21;12.10;99.90
8408;DHT22;4241;48.452;9.216;2022-11-09T06:04:48;12.10;99.90
8408;DHT22;4241;48.452;9.216;2022-11-09T06:07:15;12.20;99.90
8408;DHT22;4241;48.452;9.216;2022-11-09T06:09:42;12.20;99.90
8408;DHT22;4241;48.452;9.216;2022-11-09T06:12:09;12.20;99.90
8408;DHT22;4241;48.452;9.216;2022-11-09T06:14:36;12.20;99.90
8408;DHT22;4241;48.452;9.216;2022-11-09T06:17:04;12.20;99.90
8408;DHT22;4241;48.452;9.216;2022-11-09T06:19:30;12.50;99.90
8408;DHT22;4241;48.452;9.216;2022-11-09T06:24:24;12.30;99.90
8408;DHT22;4241;48.452;9.216;2022-11-09T06:26:51;12.40;99.90
8408;DHT22;4241;48.452;9.216;2022-11-09T06:29:18;12.40;99.90
8408;DHT22;4241;48.452;9.216;2022-11-09T06:31:45;12.60;99.90
8408;DHT22;4241;48.452;9.216;2022-11-09T06:34:14;12.60;99.90
8408;DHT22;4241;48.452;9.216;2022-11-09T06:36:41;12.60;99.90
8408;DHT22;4241;48.452;9.216;2022-11-09T06:39:08;12.70;99.90
8408;DHT22;4241;48.452;9.216;2022-11-09T06:41:35;12.70;99.90
8408;DHT22;4241;48.452;9.216;2022-11-09T06:44:03;12.70;99.90
8408;DHT22;4241;48.452;9.216;2022-11-09T06:46:31;12.80;99.90
8408;DHT22;4241;48.452;9.216;2022-11-09T06:48:58;12.80;99.90
8408;DHT22;4241;48.452;9.216;2022-11-09T06:51:26;12.90;99.90
8408;DHT22;4241;48.452;9.216;2022-11-09T06:53:53;12.80;99.90
8408;DHT22;4241;48.452;9.216;2022-11-09T06:56:19;12.90;99.90
8408;DHT22;4241;48.452;9.216;2022-11-09T06:58:46;12.80;99.90
8408;DHT22;4241;48.452;9.216;2022-11-09T07:01:16;12.90;99.90
8408;DHT22;4241;48.452;9.216;2022-11-09T07:03:43;12.80;99.90
8408;DHT22;4241;48.452;9.216;2022-11-09T07:06:11;12.80;99.90
8408;DHT22;4241;48.452;9.216;2022-11-09T07:08:39;12.80;99.90
8408;DHT22;4241;48.452;9.216;2022-11-09T07:11:08;12.80;99.90
8408;DHT22;4241;48.452;9.216;2022-11-09T07:13:36;12.70;99.90
8408;DHT22;4241;48.452;9.216;2022-11-09T07:16:03;12.80;99.90
8408;DHT22;4241;48.452;9.216;2022-11-09T07:18:30;12.80;99.90
8408;DHT22;4241;48.452;9.216;2022-11-09T07:23:24;12.80;99.90
8408;DHT22;4241;48.452;9.216;2022-11-09T07:25:53;12.80;99.90
8408;DHT22;4241;48.452;9.216;2022-11-09T07:28:19;12.90;99.90
8408;DHT22;4241;48.452;9.216;2022-11-09T07:30:46;12.90;99.90
8408;DHT22;4241;48.452;9.216;2022-11-09T07:33:16;12.90;99.90
8408;DHT22;4241;48.452;9.216;2022-11-09T07:35:44;13.00;99.90
8408;DHT22;4241;48.452;9.216;2022-11-09T07:38:11;13.00;99.90
8408;DHT22;4241;48.452;9.216;2022-11-09T07:40:38;13.60;99.90
8408;DHT22;4241;48.452;9.216;2022-11-09T07:43:07;13.00;99.90
8408;DHT22;4241;48.452;9.216;2022-11-09T07:48:55;13.00;99.90
8408;DHT22;4241;48.452;9.216;2022-11-09T07:56:16;12.90;99.90
8408;DHT22;4241;48.452;9.216;2022-11-09T07:58:44;12.60;99.90
8408;DHT22;4241;48.452;9.216;2022-11-09T08:01:11;12.50;99.90
8408;DHT22;4241;48.452;9.216;2022-11-09T08:03:38;12.40;99.90
8408;DHT22;4241;48.452;9.216;2022-11-09T08:06:05;12.30;99.90
8408;DHT22;4241;48.452;9.216;2022-11-09T08:08:32;12.10;99.90
8408;DHT22;4241;48.452;9.216;2022-11-09T08:10:59;12.10;99.90
8408;DHT22;4241;48.452;9.216;2022-11-09T08:13:26;12.10;99.90
8408;DHT22;4241;48.452;9.216;2022-11-09T08:15:54;12.00;99.90
8408;DHT22;4241;48.452;9.216;2022-11-09T08:18:21;11.90;99.90
8408;DHT22;4241;48.452;9.216;2022-11-09T08:20:48;11.90;99.90
8408;DHT22;4241;48.452;9.216;2022-11-09T08:23:17;11.90;99.90
8408;DHT22;4241;48.452;9.216;2022-11-09T08:25:45;11.90;99.90
8408;DHT22;4241;48.452;9.216;2022-11-09T08:28:13;12.00;99.90
8408;DHT22;4241;48.452;9.216;2022-11-09T08:30:41;11.90;99.90
8408;DHT22;4241;48.452;9.216;2022-11-09T08:33:09;12.00;99.90
8408;DHT22;4241;48.452;9.216;2022-11-09T08:35:36;12.00;99.90
8408;DHT22;4241;48.452;9.216;2022-11-09T08:38:04;12.00;99.90
8408;DHT22;4241;48.452;9.216;2022-11-09T08:40:32;12.10;99.90
8408;DHT22;4241;48.452;9.216;2022-11-09T08:43:02;12.00;99.90
8408;DHT22;4241;48.452;9.216;2022-11-09T08:45:31;11.90;99.90
8408;DHT22;4241;48.452;9.216;2022-11-09T08:47:58;12.00;99.90
8408;DHT22;4241;48.452;9.216;2022-11-09T08:50:27;12.10;99.90
8408;DHT22;4241;48.452;9.216;2022-11-09T08:52:55;12.00;99.90
8408;DHT22;4241;48.452;9.216;2022-11-09T08:55:22;12.10;99.90
8408;DHT22;4241;48.452;9.216;2022-11-09T08:57:52;12.10;99.90
8408;DHT22;4241;48.452;9.216;2022-11-09T09:00:19;12.10;99.90
8408;DHT22;4241;48.452;9.216;2022-11-09T09:02:46;12.10;99.90
8408;DHT22;4241;48.452;9.216;2022-11-09T09:05:13;12.20;99.90
8408;DHT22;4241;48.452;9.216;2022-11-09T09:07:42;12.20;99.90
8408;DHT22;4241;48.452;9.216;2022-11-09T09:10:09;12.20;99.90
8408;DHT22;4241;48.452;9.216;2022-11-09T09:12:36;12.20;99.90
8408;DHT22;4241;48.452;9.216;2022-11-09T09:15:04;12.30;99.90
8408;DHT22;4241;48.452;9.216;2022-11-09T09:17:31;12.30;99.90
8408;DHT22;4241;48.452;9.216;2022-11-09T09:20:00;12.40;99.90
8408;DHT22;4241;48.452;9.216;2022-11-09T09:22:26;12.40;99.90
8408;DHT22;4241;48.452;9.216;2022-11-09T09:24:55;12.50;99.90
8408;DHT22;4241;48.452;9.216;2022-11-09T09:27:21;12.50;99.90
8408;DHT22;4241;48.452;9.216;2022-11-09T09:29:48;12.60;99.90
8408;DHT22;4241;48.452;9.216;2022-11-09T09:32:15;12.70;99.90
8408;DHT22;4241;48.452;9.216;2022-11-09T09:34:42;12.70;99.90
8408;DHT22;4241;48.452;9.216;2022-11-09T09:37:09;12.60;99.90
8408;DHT22;4241;48.452;9.216;2022-11-09T09:39:35;12.80;99.90
8408;DHT22;4241;48.452;9.216;2022-11-09T09:42:06;12.90;99.90
8408;DHT22;4241;48.452;9.216;2022-11-09T09:44:38;12.80;99.90
8408;DHT22;4241;48.452;9.216;2022-11-09T09:47:10;13.00;99.90
8408;DHT22;4241;48.452;9.216;2022-11-09T09:49:43;13.00;99.90
8408;DHT22;4241;48.452;9.216;2022-11-09T09:52:17;13.00;99.90
8408;DHT22;4241;48.452;9.216;2022-11-09T09:54:51;13.10;99.90
8408;DHT22;4241;48.452;9.216;2022-11-09T09:57:22;13.20;99.90
8408;DHT22;4241;48.452;9.216;2022-11-09T09:59:51;13.30;99.90
8408;DHT22;4241;48.452;9.216;2022-11-09T10:02:21;14.80;99.90
8408;DHT22;4241;48.452;9.216;2022-11-09T10:04:49;13.40;99.90
8408;DHT22;4241;48.452;9.216;2022-11-09T10:07:22;13.50;99.90
8408;DHT22;4241;48.452;9.216;2022-11-09T10:10:36;13.60;99.90
8408;DHT22;4241;48.452;9.216;2022-11-09T10:13:23;13.60;99.90
8408;DHT22;4241;48.452;9.216;2022-11-09T10:15:56;13.70;99.90
8408;DHT22;4241;48.452;9.216;2022-11-09T10:18:36;13.80;99.90
8408;DHT22;4241;48.452;9.216;2022-11-09T10:21:17;13.90;99.90
8408;DHT22;4241;48.452;9.216;2022-11-09T10:23:58;14.00;99.90
8408;DHT22;4241;48.452;9.216;2022-11-09T10:26:37;14.00;99.90
8408;DHT22;4241;48.452;9.216;2022-11-09T10:29:19;14.20;99.90
8408;DHT22;4241;48.452;9.216;2022-11-09T10:31:48;14.30;99.90
8408;DHT22;4241;48.452;9.216;2022-11-09T10:34:18;14.50;99.90
8408;DHT22;4241;48.452;9.216;2022-11-09T10:36:51;14.40;99.90
8408;DHT22;4241;48.452;9.216;2022-11-09T10:39:21;14.40;99.90
8408;DHT22;4241;48.452;9.216;2022-11-09T10:41:49;14.50;99.90
8408;DHT22;4241;48.452;9.216;2022-11-09T10:44:18;14.40;99.90
8408;DHT22;4241;48.452;9.216;2022-11-09T10:47:04;14.50;99.90
8408;DHT22;4241;48.452;9.216;2022-11-09T10:49:31;14.70;99.90
8408;DHT22;4241;48.452;9.216;2022-11-09T10:51:59;14.80;99.90
8408;DHT22;4241;48.452;9.216;2022-11-09T10:54:28;14.80;99.90
8408;DHT22;4241;48.452;9.216;2022-11-09T10:57:08;14.90;99.90
8408;DHT22;4241;48.452;9.216;2022-11-09T10:59:42;14.90;99.90
8408;DHT22;4241;48.452;9.216;2022-11-09T11:02:39;14.90;99.90
8408;DHT22;4241;48.452;9.216;2022-11-09T11:05:22;14.90;99.90
8408;DHT22;4241;48.452;9.216;2022-11-09T11:07:49;15.00;99.90
8408;DHT22;4241;48.452;9.216;2022-11-09T11:10:20;15.10;99.90
8408;DHT22;4241;48.452;9.216;2022-11-09T11:15:38;15.30;99.90
8408;DHT22;4241;48.452;9.216;2022-11-09T11:18:14;15.30;99.90
8408;DHT22;4241;48.452;9.216;2022-11-09T11:20:42;15.40;99.90
8408;DHT22;4241;48.452;9.216;2022-11-09T11:23:13;15.50;99.90
8408;DHT22;4241;48.452;9.216;2022-11-09T11:25:58;15.60;99.90
8408;DHT22;4241;48.452;9.216;2022-11-09T11:28:31;15.70;99.90
8408;DHT22;4241;48.452;9.216;2022-11-09T11:31:00;15.90;99.90
8408;DHT22;4241;48.452;9.216;2022-11-09T11:33:28;15.90;99.90
8408;DHT22;4241;48.452;9.216;2022-11-09T11:36:00;16.00;99.90
8408;DHT22;4241;48.452;9.216;2022-11-09T11:38:33;16.10;99.90
8408;DHT22;4241;48.452;9.216;2022-11-09T11:41:11;16.00;99.90
8408;DHT22;4241;48.452;9.216;2022-11-09T11:43:48;16.00;99.90
8408;DHT22;4241;48.452;9.216;2022-11-09T11:46:26;16.10;99.90
8408;DHT22;4241;48.452;9.216;2022-11-09T11:49:18;16.10;99.90
8408;DHT22;4241;48.452;9.216;2022-11-09T11:51:54;16.30;99.90
8408;DHT22;4241;48.452;9.216;2022-11-09T11:54:28;16.10;99.90
8408;DHT22;4241;48.452;9.216;2022-11-09T11:57:03;15.90;99.90
8408;DHT22;4241;48.452;9.216;2022-11-09T11:59:50;15.80;99.90
8408;DHT22;4241;48.452;9.216;2022-11-09T12:02:34;15.80;99.90
8408;DHT22;4241;48.452;9.216;2022-11-09T12:08:18;15.80;99.90
8408;DHT22;4241;48.452;9.216;2022-11-09T12:10:53;15.70;99.90
8408;DHT22;4241;48.452;9.216;2022-11-09T12:13:38;15.70;99.90
8408;DHT22;4241;48.452;9.216;2022-11-09T12:16:12;15.80;99.90
8408;DHT22;4241;48.452;9.216;2022-11-09T12:18:49;15.80;99.90
8408;DHT22;4241;48.452;9.216;2022-11-09T12:21:24;15.70;99.90
8408;DHT22;4241;48.452;9.216;2022-11-09T12:24:04;15.70;99.90
8408;DHT22;4241;48.452;9.216;2022-11-09T12:26:49;15.70;99.90
8408;DHT22;4241;48.452;9.216;2022-11-09T12:29:20;15.80;99.90
8408;DHT22;4241;48.452;9.216;2022-11-09T12:31:56;15.90;99.90
8408;DHT22;4241;48.452;9.216;2022-11-09T12:34:31;15.90;99.90
8408;DHT22;4241;48.452;9.216;2022-11-09T12:37:01;15.90;99.90
8408;DHT22;4241;48.452;9.216;2022-11-09T12:39:34;16.00;99.90
8408;DHT22;4241;48.452;9.216;2022-11-09T12:42:05;16.00;99.90
8408;DHT22;4241;48.452;9.216;2022-11-09T12:44:39;15.90;99.90
8408;DHT22;4241;48.452;9.216;2022-11-09T12:47:14;15.90;99.90
8408;DHT22;4241;48.452;9.216;2022-11-09T12:49:44;15.90;99.90
8408;DHT22;4241;48.452;9.216;2022-11-09T12:52:14;15.90;99.90
8408;DHT22;4241;48.452;9.216;2022-11-09T12:54:44;15.90;99.90
8408;DHT22;4241;48.452;9.216;2022-11-09T12:57:15;15.80;99.90
8408;DHT22;4241;48.452;9.216;2022-11-09T12:59:47;15.80;99.90
8408;DHT22;4241;48.452;9.216;2022-11-09T13:02:29;15.70;99.90
8408;DHT22;4241;48.452;9.216;2022-11-09T13:04:59;15.60;99.90
8408;DHT22;4241;48.452;9.216;2022-11-09T13:10:27;15.70;99.90
8408;DHT22;4241;48.452;9.216;2022-11-09T13:13:20;15.80;99.90
8408;DHT22;4241;48.452;9.216;2022-11-09T13:18:50;15.80;99.90
8408;DHT22;4241;48.452;9.216;2022-11-09T13:21:34;15.70;99.90
8408;DHT22;4241;48.452;9.216;2022-11-09T13:27:37;15.70;99.90
8408;DHT22;4241;48.452;9.216;2022-11-09T13:33:21;15.80;99.90
8408;DHT22;4241;48.452;9.216;2022-11-09T13:41:48;15.70;99.90
8408;DHT22;4241;48.452;9.216;2022-11-09T13:44:20;15.70;99.90
8408;DHT22;4241;48.452;9.216;2022-11-09T13:46:48;15.70;99.90
8408;DHT22;4241;48.452;9.216;2022-11-09T13:49:40;15.60;99.90
8408;DHT22;4241;48.452;9.216;2022-11-09T13:52:40;15.70;99.90
8408;DHT22;4241;48.452;9.216;2022-11-09T13:55:27;15.80;99.90
8408;DHT22;4241;48.452;9.216;2022-11-09T13:57:59;15.60;99.90
8408;DHT22;4241;48.452;9.216;2022-11-09T14:00:27;15.60;99.90
8408;DHT22;4241;48.452;9.216;2022-11-09T14:02:58;15.50;99.90
8408;DHT22;4241;48.452;9.216;2022-11-09T14:05:27;15.50;99.90
8408;DHT22;4241;48.452;9.216;2022-11-09T14:07:54;15.50;99.90
8408;DHT22;4241;48.452;9.216;2022-11-09T14:10:50;15.50;99.90
8408;DHT22;4241;48.452;9.216;2022-11-09T14:13:38;15.40;99.90
8408;DHT22;4241;48.452;9.216;2022-11-09T14:16:13;15.40;99.90
8408;DHT22;4241;48.452;9.216;2022-11-09T14:18:59;15.30;99.90
8408;DHT22;4241;48.452;9.216;2022-11-09T14:21:39;15.10;99.90
8408;DHT22;4241;48.452;9.216;2022-11-09T14:24:13;15.00;99.90
8408;DHT22;4241;48.452;9.216;2022-11-09T14:27:03;15.00;99.90
8408;DHT22;4241;48.452;9.216;2022-11-09T14:29:31;14.90;99.90
8408;DHT22;4241;48.452;9.216;2022-11-09T14:31:59;14.80;99.90
8408;DHT22;4241;48.452;9.216;2022-11-09T14:34:27;14.70;99.90
8408;DHT22;4241;48.452;9.216;2022-11-09T14:36:54;14.70;99.90
8408;DHT22;4241;48.452;9.216;2022-11-09T14:39:26;14.70;99.90
8408;DHT22;4241;48.452;9.216;2022-11-09T14:41:54;14.50;99.90
8408;DHT22;4241;48.452;9.216;2022-11-09T14:44:25;14.50;99.90
8408;DHT22;4241;48.452;9.216;2022-11-09T14:46:55;14.50;99.90
8408;DHT22;4241;48.452;9.216;2022-11-09T14:49:24;14.50;99.90
8408;DHT22;4241;48.452;9.216;2022-11-09T14:51:52;14.50;99.90
8408;DHT22;4241;48.452;9.216;2022-11-09T14:54:23;14.40;99.90
8408;DHT22;4241;48.452;9.216;2022-11-09T14:56:52;14.40;99.90
8408;DHT22;4241;48.452;9.216;2022-11-09T14:59:28;14.40;99.90
8408;DHT22;4241;48.452;9.216;2022-11-09T15:02:05;14.40;99.90
8408;DHT22;4241;48.452;9.216;2022-11-09T15:04:54;14.30;99.90
8408;DHT22;4241;48.452;9.216;2022-11-09T15:07:24;14.30;99.90
8408;DHT22;4241;48.452;9.216;2022-11-09T15:09:55;14.20;99.90
8408;DHT22;4241;48.452;9.216;2022-11-09T15:12:23;14.10;99.90
8408;DHT22;4241;48.452;9.216;2022-11-09T15:14:52;14.10;99.90
8408;DHT22;4241;48.452;9.216;2022-11-09T15:17:26;14.10;99.90
8408;DHT22;4241;48.452;9.216;2022-11-09T15:19:54;14.00;99.90
8408;DHT22;4241;48.452;9.216;2022-11-09T15:22:47;14.00;99.90
8408;DHT22;4241;48.452;9.216;2022-11-09T15:25:23;14.00;99.90
8408;DHT22;4241;48.452;9.216;2022-11-09T15:28:03;14.00;99.90
8408;DHT22;4241;48.452;9.216;2022-11-09T15:30:43;13.90;99.90
8408;DHT22;4241;48.452;9.216;2022-11-09T15:33:25;13.80;99.90
8408;DHT22;4241;48.452;9.216;2022-11-09T15:35:54;13.80;99.90
8408;DHT22;4241;48.452;9.216;2022-11-09T15:38:31;13.70;99.90
8408;DHT22;4241;48.452;9.216;2022-11-09T15:41:02;13.70;99.90
8408;DHT22;4241;48.452;9.216;2022-11-09T15:43:29;13.70;99.90
8408;DHT22;4241;48.452;9.216;2022-11-09T15:45:58;13.60;99.90
8408;DHT22;4241;48.452;9.216;2022-11-09T15:48:27;13.60;99.90
8408;DHT22;4241;48.452;9.216;2022-11-09T15:50:54;13.50;99.90
8408;DHT22;4241;48.452;9.216;2022-11-09T15:53:21;13.40;99.90
8408;DHT22;4241;48.452;9.216;2022-11-09T15:55:48;13.40;99.90
8408;DHT22;4241;48.452;9.216;2022-11-09T15:58:17;13.40;99.90
8408;DHT22;4241;48.452;9.216;2022-11-09T16:00:44;13.30;99.90
8408;DHT22;4241;48.452;9.216;2022-11-09T16:03:11;13.40;99.90
8408;DHT22;4241;48.452;9.216;2022-11-09T16:05:39;13.40;99.90
8408;DHT22;4241;48.452;9.216;2022-11-09T16:08:06;13.40;99.90
8408;DHT22;4241;48.452;9.216;2022-11-09T16:10:34;13.30;99.90
8408;DHT22;4241;48.452;9.216;2022-11-09T16:15:32;13.30;99.90
8408;DHT22;4241;48.452;9.216;2022-11-09T16:17:59;13.60;99.90
8408;DHT22;4241;48.452;9.216;2022-11-09T16:20:29;13.30;99.90
8408;DHT22;4241;48.452;9.216;2022-11-09T16:22:57;13.30;99.90
8408;DHT22;4241;48.452;9.216;2022-11-09T16:25:24;13.20;99.90
8408;DHT22;4241;48.452;9.216;2022-11-09T16:27:51;13.10;99.90
8408;DHT22;4241;48.452;9.216;2022-11-09T16:30:19;13.10;99.90
8408;DHT22;4241;48.452;9.216;2022-11-09T16:32:46;13.10;99.90
8408;DHT22;4241;48.452;9.216;2022-11-09T16:35:13;13.00;99.90
8408;DHT22;4241;48.452;9.216;2022-11-09T16:40:11;12.90;99.90
8408;DHT22;4241;48.452;9.216;2022-11-09T16:42:39;13.00;99.90
8408;DHT22;4241;48.452;9.216;2022-11-09T16:45:08;13.00;99.90
8408;DHT22;4241;48.452;9.216;2022-11-09T16:47:38;13.00;99.90
8408;DHT22;4241;48.452;9.216;2022-11-09T16:50:07;13.00;99.90
8408;DHT22;4241;48.452;9.216;2022-11-09T16:52:34;12.90;99.90
8408;DHT22;4241;48.452;9.216;2022-11-09T16:55:00;12.90;99.90
8408;DHT22;4241;48.452;9.216;2022-11-09T16:57:29;12.90;99.90
8408;DHT22;4241;48.452;9.216;2022-11-09T16:59:56;12.80;99.90
8408;DHT22;4241;48.452;9.216;2022-11-09T17:02:23;12.80;99.90
8408;DHT22;4241;48.452;9.216;2022-11-09T17:04:51;12.70;99.90
8408;DHT22;4241;48.452;9.216;2022-11-09T17:07:18;12.70;99.90
8408;DHT22;4241;48.452;9.216;2022-11-09T17:09:45;12.70;99.90
8408;DHT22;4241;48.452;9.216;2022-11-09T17:12:12;12.70;99.90